Time;durP1;ratioP1;P1;durP2;ratioP2;P2;SDS_P1;SDS_P2;PMS_P1;PMS_P2;Temp;Humidity;BMP_temperature;BMP_pressure;BME280_temperature;BME280_humidity;BME280_pressure;Samples;Min_cycle;Max_cycle;Signal;HPM_P1;HPM_P2
2021/11/16 00:02:04;;;;;;;52.33;28.17;;;8.00;78.80;;;;;;5088755;28;20028;-66
2021/11/16 00:04:30;;;;;;;52.85;29.38;;;8.00;78.90;;;;;;5066778;28;20093;-66
2021/11/16 00:06:55;;;;;;;49.17;27.48;;;8.00;78.80;;;;;;5066836;28;20017;-68
2021/11/16 00:09:21;;;;;;;51.28;27.95;;;8.00;78.90;;;;;;5068639;28;20033;-68
2021/11/16 00:11:47;;;;;;;48.58;28.10;;;8.00;78.90;;;;;;5089254;28;20024;-68
2021/11/16 00:14:15;;;;;;;54.70;29.73;;;8.00;78.90;;;;;;5070657;28;20040;-68
2021/11/16 00:16:42;;;;;;;55.20;28.42;;;8.00;78.90;;;;;;5089720;28;20119;-66
2021/11/16 00:19:11;;;;;;;50.13;27.75;;;8.00;79.60;;;;;;5086592;28;20027;-66
2021/11/16 00:21:40;;;;;;;54.97;29.52;;;8.00;79.10;;;;;;5089068;28;20036;-66
2021/11/16 00:24:11;;;;;;;53.75;29.33;;;8.00;79.20;;;;;;5084132;28;20035;-67
2021/11/16 00:26:37;;;;;;;55.88;30.35;;;8.00;79.20;;;;;;5088916;28;20024;-66
2021/11/16 00:29:02;;;;;;;52.05;26.92;;;8.00;79.30;;;;;;5070149;28;20471;-66
2021/11/16 00:31:31;;;;;;;51.13;27.88;;;8.00;79.40;;;;;;5088346;28;20028;-66
2021/11/16 00:33:58;;;;;;;52.22;29.13;;;8.10;79.50;;;;;;5088345;28;20073;-66
2021/11/16 00:36:23;;;;;;;57.95;30.55;;;8.00;79.50;;;;;;5088797;28;20043;-66
2021/11/16 00:38:49;;;;;;;53.45;28.75;;;8.10;79.40;;;;;;5088421;28;20020;-66
2021/11/16 00:41:15;;;;;;;54.13;29.42;;;8.10;79.50;;;;;;5084445;28;20027;-66
2021/11/16 00:43:41;;;;;;;57.30;30.58;;;8.00;79.30;;;;;;5088372;28;20441;-66
2021/11/16 00:46:08;;;;;;;56.35;29.63;;;8.10;79.30;;;;;;5088636;28;20032;-66
2021/11/16 00:48:34;;;;;;;56.15;29.83;;;8.10;79.20;;;;;;5087999;28;20406;-66
2021/11/16 00:51:03;;;;;;;56.90;30.80;;;8.00;79.30;;;;;;5086274;28;20021;-66
2021/11/16 00:53:32;;;;;;;51.63;28.42;;;8.00;79.20;;;;;;5088224;28;20375;-66
2021/11/16 00:55:59;;;;;;;54.85;29.58;;;8.00;79.10;;;;;;5088462;28;20098;-66
2021/11/16 00:58:25;;;;;;;51.95;28.98;;;8.00;79.20;;;;;;5087953;28;20028;-65
2021/11/16 01:00:51;;;;;;;54.25;29.10;;;8.00;79.40;;;;;;5084601;28;20402;-69
2021/11/16 01:03:18;;;;;;;53.85;28.13;;;8.00;79.40;;;;;;5070505;28;20039;-69
2021/11/16 01:05:45;;;;;;;53.25;28.63;;;8.00;79.40;;;;;;5086988;28;20126;-69
2021/11/16 01:08:11;;;;;;;48.60;26.95;;;7.90;79.30;;;;;;5089007;28;20047;-69
2021/11/16 01:10:40;;;;;;;57.15;30.75;;;7.90;79.30;;;;;;5069946;28;20474;-69
2021/11/16 01:13:05;;;;;;;58.03;30.58;;;7.90;79.30;;;;;;5062153;28;20067;-69
2021/11/16 01:15:34;;;;;;;59.25;32.20;;;7.90;79.30;;;;;;5087298;28;20458;-69
2021/11/16 01:18:00;;;;;;;54.83;29.40;;;7.90;79.40;;;;;;5089248;28;20109;-69
2021/11/16 01:20:26;;;;;;;57.30;30.30;;;7.90;79.30;;;;;;5069970;28;20032;-69
2021/11/16 01:22:55;;;;;;;60.20;30.75;;;7.90;79.50;;;;;;5088335;28;20124;-69
2021/11/16 01:25:22;;;;;;;51.10;29.80;;;7.80;79.50;;;;;;5088673;28;20428;-69
2021/11/16 01:27:48;;;;;;;60.50;32.13;;;7.80;79.50;;;;;;5063535;28;20387;-69
2021/11/16 01:30:17;;;;;;;60.75;30.85;;;7.80;79.80;;;;;;5064137;28;20028;-68
2021/11/16 01:33:06;;;;;;;58.78;30.38;;;7.90;80.00;;;;;;5088744;28;20040;-69
2021/11/16 01:35:33;;;;;;;56.05;29.00;;;7.90;79.90;;;;;;5087833;28;20032;-66
2021/11/16 01:37:58;;;;;;;58.35;30.30;;;7.90;79.80;;;;;;5088326;28;20031;-66
2021/11/16 01:40:25;;;;;;;55.35;29.83;;;7.90;79.80;;;;;;5090170;28;20020;-65
2021/11/16 01:42:52;;;;;;;53.78;28.23;;;7.90;79.80;;;;;;5092177;28;20031;-66
2021/11/16 01:45:20;;;;;;;59.10;29.85;;;7.90;79.80;;;;;;5071584;28;20040;-66
2021/11/16 01:47:48;;;;;;;54.88;29.10;;;7.90;79.80;;;;;;5068912;28;20020;-66
2021/11/16 01:50:16;;;;;;;53.70;28.98;;;7.90;79.70;;;;;;5070689;28;20024;-66
2021/11/16 01:52:42;;;;;;;56.15;29.85;;;7.90;79.80;;;;;;5089957;28;20475;-66
2021/11/16 01:55:10;;;;;;;60.40;30.38;;;7.90;79.50;;;;;;5092182;28;20036;-66
2021/11/16 01:57:36;;;;;;;55.05;28.88;;;7.90;79.60;;;;;;5091251;28;20036;-65
2021/11/16 02:00:10;;;;;;;55.03;29.80;;;7.90;79.70;;;;;;5091412;28;20395;-65
2021/11/16 02:02:36;;;;;;;55.10;28.67;;;8.00;79.90;;;;;;5082758;28;20036;-66
2021/11/16 02:05:03;;;;;;;52.53;28.90;;;8.00;79.90;;;;;;5091666;28;20024;-65
2021/11/16 02:07:28;;;;;;;56.03;29.23;;;8.00;79.90;;;;;;5090889;28;20043;-66
2021/11/16 02:09:54;;;;;;;55.13;30.60;;;8.00;80.00;;;;;;5089440;28;20025;-66
2021/11/16 02:12:20;;;;;;;55.08;29.40;;;7.90;80.10;;;;;;5087338;28;20065;-66
2021/11/16 02:14:46;;;;;;;49.13;27.88;;;7.90;80.10;;;;;;5087265;28;20044;-66
2021/11/16 02:17:12;;;;;;;51.03;29.02;;;7.90;80.00;;;;;;5090405;28;20036;-66
2021/11/16 02:19:38;;;;;;;55.83;30.30;;;7.90;80.10;;;;;;5090728;28;20039;-65
2021/11/16 02:22:04;;;;;;;53.03;29.20;;;7.90;79.90;;;;;;5090700;28;20071;-65
2021/11/16 02:24:29;;;;;;;52.65;28.30;;;7.90;79.80;;;;;;5072157;28;20024;-66
2021/11/16 02:26:55;;;;;;;57.25;30.48;;;7.90;80.00;;;;;;5091073;28;20016;-66
2021/11/16 02:29:21;;;;;;;58.33;30.92;;;7.90;80.70;;;;;;5088235;28;20275;-69
2021/11/16 02:31:55;;;;;;;60.35;30.58;;;7.90;80.10;;;;;;5091005;28;20028;-69
2021/11/16 02:34:21;;;;;;;53.72;28.80;;;7.90;80.20;;;;;;5090168;28;20031;-69
2021/11/16 02:36:47;;;;;;;59.10;31.00;;;7.90;80.30;;;;;;5088641;28;20048;-66
2021/11/16 02:39:15;;;;;;;59.03;30.75;;;7.90;80.40;;;;;;5072571;28;20032;-66
2021/11/16 02:41:51;;;;;;;55.95;29.55;;;8.00;80.40;;;;;;5090707;28;20078;-66
2021/11/16 02:44:19;;;;;;;52.47;28.77;;;8.00;80.30;;;;;;5087874;28;20113;-66
2021/11/16 02:46:49;;;;;;;57.40;29.52;;;8.00;80.30;;;;;;5090464;28;20024;-66
2021/11/16 02:49:16;;;;;;;59.65;30.58;;;8.00;80.30;;;;;;5089312;28;20115;-66
2021/11/16 02:51:43;;;;;;;57.50;29.40;;;8.00;80.30;;;;;;5071738;28;20028;-66
2021/11/16 02:54:18;;;;;;;55.53;29.33;;;8.00;80.30;;;;;;5090198;28;20016;-66
2021/11/16 02:56:44;;;;;;;58.97;30.90;;;8.00;80.30;;;;;;5069243;28;20028;-69
2021/11/16 02:59:11;;;;;;;59.50;30.52;;;8.00;80.40;;;;;;5071597;28;20402;-69
2021/11/16 03:01:37;;;;;;;57.47;30.30;;;8.00;80.40;;;;;;5089949;28;20028;-68
2021/11/16 03:04:03;;;;;;;51.63;28.98;;;8.00;80.50;;;;;;5090664;28;20020;-68
2021/11/16 03:06:29;;;;;;;52.08;29.17;;;8.00;80.30;;;;;;5090795;28;20052;-68
2021/11/16 03:08:55;;;;;;;56.28;28.77;;;8.00;80.40;;;;;;5084446;28;20109;-69
2021/11/16 03:11:21;;;;;;;54.55;29.13;;;8.00;80.50;;;;;;5088991;28;20123;-68
2021/11/16 03:13:47;;;;;;;59.70;30.95;;;8.00;80.50;;;;;;5090591;28;20124;-70
2021/11/16 03:16:19;;;;;;;56.10;28.63;;;8.00;80.50;;;;;;5087527;28;20375;-69
2021/11/16 03:18:46;;;;;;;55.28;28.52;;;8.00;80.50;;;;;;5090320;28;20032;-66
2021/11/16 03:21:13;;;;;;;56.63;28.45;;;8.00;80.40;;;;;;5089518;28;20035;-68
2021/11/16 03:23:41;;;;;;;54.33;28.63;;;8.00;80.30;;;;;;5090430;28;20524;-66
2021/11/16 03:26:07;;;;;;;55.90;28.95;;;8.00;80.30;;;;;;5089836;28;20024;-67
2021/11/16 03:28:37;;;;;;;56.33;29.15;;;7.90;80.20;;;;;;5090068;28;20085;-67
2021/11/16 03:31:11;;;;;;;57.35;29.20;;;7.90;80.30;;;;;;5061408;28;20102;-66
2021/11/16 03:33:39;;;;;;;50.83;28.15;;;8.00;80.40;;;;;;5090530;28;20074;-66
2021/11/16 03:36:05;;;;;;;52.95;28.75;;;7.90;80.30;;;;;;5089964;28;20073;-66
2021/11/16 03:38:33;;;;;;;55.38;28.63;;;7.90;80.20;;;;;;5089610;28;20350;-66
2021/11/16 03:40:59;;;;;;;55.78;29.48;;;7.90;80.20;;;;;;5065291;28;20024;-66
2021/11/16 03:43:26;;;;;;;57.95;30.95;;;7.90;80.40;;;;;;5088659;28;20028;-66
2021/11/16 03:45:52;;;;;;;56.90;29.98;;;7.90;80.60;;;;;;5068320;28;20131;-66
2021/11/16 03:48:19;;;;;;;53.90;28.48;;;7.90;80.30;;;;;;5089312;28;20538;-66
2021/11/16 03:50:44;;;;;;;57.38;30.30;;;7.90;80.20;;;;;;5086931;28;20035;-66
2021/11/16 03:53:10;;;;;;;56.25;30.05;;;7.90;79.90;;;;;;5089999;28;20032;-66
2021/11/16 03:55:41;;;;;;;57.55;29.45;;;7.90;79.90;;;;;;5088588;28;20123;-67
2021/11/16 03:58:08;;;;;;;53.92;28.77;;;7.90;80.00;;;;;;5089842;28;20028;-66
2021/11/16 04:00:48;;;;;;;51.42;28.25;;;7.90;80.00;;;;;;5066113;28;20152;-68
2021/11/16 04:03:14;;;;;;;57.33;29.33;;;7.90;80.30;;;;;;5062155;28;20259;-69
2021/11/16 04:05:39;;;;;;;57.42;30.52;;;7.90;80.50;;;;;;5088750;28;20032;-69
2021/11/16 04:08:06;;;;;;;52.83;29.38;;;7.90;80.60;;;;;;5068088;28;20020;-69
2021/11/16 04:10:32;;;;;;;55.60;29.75;;;7.90;80.50;;;;;;5043666;28;20119;-66
2021/11/16 04:12:58;;;;;;;55.85;30.38;;;7.90;80.60;;;;;;5066544;28;20045;-66
2021/11/16 04:15:25;;;;;;;59.38;30.30;;;7.90;80.60;;;;;;5086969;28;20030;-66
2021/11/16 04:17:53;;;;;;;55.92;28.80;;;7.90;80.50;;;;;;5100787;28;20101;-66
2021/11/16 04:20:22;;;;;;;56.47;29.95;;;8.00;80.60;;;;;;5081852;28;20532;-66
2021/11/16 04:22:49;;;;;;;60.03;30.23;;;8.00;80.50;;;;;;5088869;28;20028;-69
2021/11/16 04:25:15;;;;;;;56.72;29.05;;;7.90;80.30;;;;;;5093032;28;20031;-69
2021/11/16 04:27:42;;;;;;;52.03;27.73;;;7.90;80.30;;;;;;5089563;28;20157;-69
2021/11/16 04:30:10;;;;;;;58.22;29.23;;;7.90;80.40;;;;;;5087573;28;20053;-69
2021/11/16 04:32:36;;;;;;;59.25;30.27;;;8.00;80.50;;;;;;5086940;28;20025;-69
2021/11/16 04:35:02;;;;;;;59.30;29.58;;;8.00;80.40;;;;;;5095718;28;20035;-69
2021/11/16 04:37:28;;;;;;;60.72;29.38;;;7.90;80.40;;;;;;5089648;28;20031;-69
2021/11/16 04:39:54;;;;;;;59.20;29.23;;;7.90;80.40;;;;;;5070369;28;20479;-69
2021/11/16 04:42:20;;;;;;;56.47;29.73;;;7.90;80.40;;;;;;5083326;28;20040;-69
2021/11/16 04:44:47;;;;;;;58.25;28.52;;;8.00;80.50;;;;;;5078987;28;20038;-69
2021/11/16 04:47:17;;;;;;;62.97;30.45;;;7.90;81.10;;;;;;5102699;28;20055;-69
2021/11/16 04:49:47;;;;;;;57.47;29.25;;;7.90;80.50;;;;;;5070013;28;20242;-66
2021/11/16 05:02:52;;;;;;;62.90;29.30;;;7.90;80.70;;;;;;5087426;28;20039;-69
2021/11/16 05:05:20;;;;;;;57.40;28.27;;;7.90;80.80;;;;;;5070102;28;20038;-69
2021/11/16 05:07:54;;;;;;;62.47;28.90;;;7.90;80.80;;;;;;5095681;28;20027;-69
2021/11/16 05:10:20;;;;;;;56.47;29.05;;;7.90;80.80;;;;;;5098864;28;20062;-69
2021/11/16 05:12:46;;;;;;;60.75;28.67;;;8.00;80.80;;;;;;5062497;28;20048;-69
2021/11/16 05:15:15;;;;;;;60.85;29.55;;;7.90;80.70;;;;;;5069835;28;20035;-69
2021/11/16 05:17:43;;;;;;;56.17;28.33;;;7.90;80.70;;;;;;5070307;28;20071;-69
2021/11/16 05:20:10;;;;;;;59.00;28.10;;;7.90;80.70;;;;;;5077265;28;20035;-66
2021/11/16 05:22:36;;;;;;;62.05;29.13;;;7.90;80.70;;;;;;5075267;28;20086;-69
2021/11/16 05:25:03;;;;;;;60.13;29.20;;;7.90;80.70;;;;;;5080428;28;20103;-69
2021/11/16 05:27:29;;;;;;;56.63;28.15;;;7.90;80.60;;;;;;5074575;28;20035;-69
2021/11/16 05:29:55;;;;;;;57.35;28.65;;;7.90;80.60;;;;;;5070275;28;20025;-66
2021/11/16 05:32:21;;;;;;;56.88;28.75;;;7.90;80.60;;;;;;5071993;28;20031;-66
2021/11/16 05:34:47;;;;;;;58.28;28.40;;;7.90;80.60;;;;;;5053495;28;20515;-69
2021/11/16 05:37:13;;;;;;;57.20;28.35;;;7.90;80.50;;;;;;5080101;28;20036;-69
2021/11/16 05:39:39;;;;;;;57.55;28.90;;;7.90;80.60;;;;;;5079153;28;20033;-69
2021/11/16 05:42:05;;;;;;;60.53;29.60;;;7.90;80.60;;;;;;5079733;28;20025;-69
2021/11/16 05:44:32;;;;;;;60.67;28.70;;;7.90;80.70;;;;;;5086954;28;20763;-69
2021/11/16 05:47:00;;;;;;;58.15;28.08;;;7.90;80.70;;;;;;5081226;28;20027;-69
2021/11/16 05:49:31;;;;;;;56.75;27.88;;;7.80;80.60;;;;;;5071363;28;20021;-69
2021/11/16 05:51:58;;;;;;;61.85;28.42;;;7.90;80.80;;;;;;5059947;28;20445;-69
2021/11/16 05:54:28;;;;;;;57.72;28.95;;;7.90;80.80;;;;;;5085684;28;20086;-66
2021/11/16 05:56:54;;;;;;;62.03;28.88;;;7.90;80.90;;;;;;5071340;28;20090;-66
2021/11/16 05:59:20;;;;;;;58.00;28.38;;;7.90;80.90;;;;;;5071014;28;20107;-66
2021/11/16 06:01:45;;;;;;;57.45;28.75;;;7.80;80.90;;;;;;5051858;28;20223;-66
2021/11/16 06:04:11;;;;;;;57.85;28.10;;;7.90;81.00;;;;;;5071369;28;20032;-66
2021/11/16 06:06:39;;;;;;;65.20;29.42;;;7.90;81.10;;;;;;5063143;28;20032;-66
2021/11/16 06:09:06;;;;;;;64.95;29.42;;;7.90;80.90;;;;;;5091665;28;20058;-66
2021/11/16 06:11:32;;;;;;;62.00;29.65;;;7.80;80.90;;;;;;5074353;28;20046;-69
2021/11/16 06:13:58;;;;;;;61.60;28.25;;;7.80;81.00;;;;;;5091137;28;20062;-69
2021/11/16 06:16:24;;;;;;;59.55;28.50;;;7.80;81.10;;;;;;5095502;28;20021;-69
2021/11/16 06:18:54;;;;;;;63.30;29.85;;;7.80;81.10;;;;;;5096678;28;20016;-69
2021/11/16 06:21:21;;;;;;;65.88;29.10;;;7.80;81.10;;;;;;5093493;28;20372;-70
2021/11/16 06:23:47;;;;;;;63.13;29.15;;;7.80;81.20;;;;;;5090974;28;20024;-69
2021/11/16 06:26:13;;;;;;;59.38;28.73;;;7.80;81.30;;;;;;5102345;28;20386;-69
2021/11/16 06:28:39;;;;;;;60.25;27.90;;;7.80;81.20;;;;;;5094432;28;20024;-66
2021/11/16 06:31:05;;;;;;;60.22;28.65;;;7.80;81.30;;;;;;5090031;28;20068;-66
2021/11/16 06:33:30;;;;;;;61.90;28.45;;;7.80;81.40;;;;;;5106754;28;20062;-66
2021/11/16 06:35:56;;;;;;;67.10;29.90;;;7.80;81.40;;;;;;5089476;28;20032;-66
2021/11/16 06:38:22;;;;;;;66.20;29.25;;;7.80;81.50;;;;;;5088964;28;20584;-66
2021/11/16 06:40:48;;;;;;;61.65;29.33;;;7.80;81.50;;;;;;5092821;28;20032;-67
2021/11/16 06:43:24;;;;;;;65.70;30.90;;;7.80;81.60;;;;;;5090679;28;20028;-66
2021/11/16 06:45:55;;;;;;;62.53;29.38;;;7.80;81.70;;;;;;5089814;28;20051;-66
2021/11/16 06:48:22;;;;;;;62.70;29.05;;;7.80;81.70;;;;;;5090836;28;20425;-66
2021/11/16 06:50:48;;;;;;;61.25;27.75;;;7.80;81.80;;;;;;5089986;28;20081;-66
2021/11/16 06:53:24;;;;;;;60.85;28.83;;;7.80;81.90;;;;;;5072835;28;20028;-66
2021/11/16 06:55:50;;;;;;;64.20;30.27;;;7.80;81.90;;;;;;5072192;28;20027;-66
2021/11/16 06:58:16;;;;;;;60.63;28.65;;;7.80;81.90;;;;;;5090598;28;20497;-66
2021/11/16 07:00:41;;;;;;;60.33;27.88;;;7.70;81.90;;;;;;5089205;28;20032;-66
2021/11/16 07:03:08;;;;;;;57.42;27.38;;;7.80;82.10;;;;;;5091167;28;20036;-66
2021/11/16 07:05:35;;;;;;;65.70;28.60;;;7.70;82.00;;;;;;5076789;28;20028;-66
2021/11/16 07:08:01;;;;;;;62.30;29.83;;;7.80;82.20;;;;;;5101635;28;20016;-66
2021/11/16 07:10:31;;;;;;;61.50;27.92;;;7.80;82.20;;;;;;5089758;28;20052;-66
2021/11/16 07:13:09;;;;;;;63.78;30.40;;;7.80;82.20;;;;;;5090429;28;20131;-67
2021/11/16 07:15:35;;;;;;;62.78;28.55;;;7.80;82.30;;;;;;5083849;28;20059;-69
2021/11/16 07:18:05;;;;;;;62.20;27.52;;;7.80;82.20;;;;;;5090193;28;20553;-69
2021/11/16 07:20:32;;;;;;;68.18;30.45;;;7.80;82.20;;;;;;5084495;28;20105;-69
2021/11/16 07:22:58;;;;;;;62.13;28.40;;;7.80;82.20;;;;;;5090550;28;20065;-70
2021/11/16 07:25:24;;;;;;;64.00;29.23;;;7.80;82.20;;;;;;5085141;28;20044;-70
2021/11/16 07:27:54;;;;;;;71.18;29.05;;;7.70;82.20;;;;;;5084984;28;20380;-69
2021/11/16 07:30:28;;;;;;;64.43;28.75;;;7.70;82.10;;;;;;5073547;28;20021;-66
2021/11/16 07:33:15;;;;;;;65.10;28.30;;;7.70;82.20;;;;;;5070793;28;20020;-69
2021/11/16 07:35:44;;;;;;;67.28;29.13;;;7.70;82.30;;;;;;5068960;28;20025;-69
2021/11/16 07:38:15;;;;;;;68.97;29.23;;;7.70;82.50;;;;;;5068432;28;20031;-69
2021/11/16 07:40:45;;;;;;;67.07;29.20;;;7.70;82.60;;;;;;5051165;28;20032;-70
2021/11/16 07:43:12;;;;;;;65.55;30.48;;;7.70;82.70;;;;;;5070301;28;20028;-70
2021/11/16 07:45:43;;;;;;;62.03;27.13;;;7.70;82.80;;;;;;5069501;28;20479;-70
2021/11/16 07:48:18;;;;;;;63.47;28.80;;;7.70;82.90;;;;;;5066132;28;20468;-68
2021/11/16 07:50:46;;;;;;;68.05;28.45;;;7.70;83.00;;;;;;5069646;28;20467;-68
2021/11/16 07:53:18;;;;;;;62.17;28.08;;;7.70;82.90;;;;;;5050918;28;20017;-69
2021/11/16 07:55:51;;;;;;;55.53;27.08;;;7.70;83.00;;;;;;5070062;28;20043;-68
2021/11/16 07:58:17;;;;;;;66.30;28.70;;;7.80;83.00;;;;;;5069655;28;20038;-68
2021/11/16 08:00:47;;;;;;;67.18;28.10;;;7.80;83.00;;;;;;5068956;28;20112;-68
2021/11/16 08:03:19;;;;;;;63.05;27.80;;;7.80;82.90;;;;;;5068262;28;20118;-68
2021/11/16 08:05:58;;;;;;;63.03;29.05;;;7.70;82.90;;;;;;5070123;28;20029;-68
2021/11/16 08:14:11;;;;;;;64.63;28.60;;;7.70;82.90;;;;;;5065563;28;20062;-67
2021/11/16 08:16:51;;;;;;;59.42;27.33;;;7.70;83.00;;;;;;5090335;28;20031;-67
2021/11/16 08:19:20;;;;;;;52.33;25.88;;;7.70;83.10;;;;;;5090037;28;20477;-67
2021/11/16 08:21:46;;;;;;;60.92;26.60;;;7.70;83.10;;;;;;5089029;28;20103;-68
2021/11/16 08:24:15;;;;;;;61.28;27.60;;;7.70;83.00;;;;;;5071545;28;20089;-67
2021/11/16 08:26:50;;;;;;;60.10;26.65;;;7.70;83.00;;;;;;5089915;28;20048;-66
2021/11/16 08:29:24;;;;;;;59.50;26.92;;;7.70;83.10;;;;;;5089327;28;20470;-67
2021/11/16 08:31:58;;;;;;;58.20;26.48;;;7.70;83.10;;;;;;5089673;28;20019;-67
2021/11/16 08:34:26;;;;;;;61.35;27.42;;;7.80;83.20;;;;;;5071795;28;20029;-67
2021/11/16 08:36:55;;;;;;;60.88;26.35;;;7.80;83.20;;;;;;5090425;28;20526;-67
2021/11/16 08:39:31;;;;;;;63.83;27.35;;;7.80;83.20;;;;;;5071748;28;20024;-68
2021/11/16 08:41:57;;;;;;;64.82;27.98;;;7.80;83.10;;;;;;5070954;28;20421;-68
2021/11/16 08:44:31;;;;;;;59.97;26.92;;;7.80;83.10;;;;;;5071068;28;20032;-67
2021/11/16 08:47:11;;;;;;;63.90;26.48;;;7.80;83.10;;;;;;5073085;28;20024;-68
2021/11/16 08:49:41;;;;;;;59.65;27.00;;;7.80;82.90;;;;;;5089442;28;20024;-68
2021/11/16 08:52:15;;;;;;;56.50;27.13;;;7.80;82.80;;;;;;5089623;28;20020;-68
2021/11/16 08:54:57;;;;;;;54.67;23.95;;;7.70;82.80;;;;;;5083020;28;20055;-68
2021/11/16 08:57:24;;;;;;;54.07;24.07;;;7.70;82.90;;;;;;5085603;28;20077;-68
2021/11/16 08:59:51;;;;;;;60.20;26.67;;;7.70;82.90;;;;;;5079430;28;20024;-68
2021/11/16 09:02:19;;;;;;;58.42;26.40;;;7.70;82.90;;;;;;5084035;28;20406;-68
2021/11/16 09:04:46;;;;;;;54.80;24.35;;;7.70;83.00;;;;;;5087733;28;20028;-68
2021/11/16 09:07:23;;;;;;;58.83;25.58;;;7.70;82.90;;;;;;5088810;28;20055;-68
2021/11/16 09:10:03;;;;;;;59.03;24.38;;;7.80;82.80;;;;;;5087167;28;20475;-68
2021/11/16 09:12:45;;;;;;;52.08;24.50;;;7.70;82.60;;;;;;5088357;28;20048;-68
2021/11/16 09:15:18;;;;;;;55.77;25.50;;;7.70;82.70;;;;;;5088102;28;20024;-68
2021/11/16 09:17:44;;;;;;;52.20;23.65;;;7.80;82.80;;;;;;5070831;28;20182;-68
2021/11/16 09:20:25;;;;;;;59.58;25.13;;;7.80;82.90;;;;;;5069326;28;20047;-68
2021/11/16 09:22:53;;;;;;;60.40;24.75;;;7.80;83.00;;;;;;5068584;28;20031;-68
2021/11/16 09:25:32;;;;;;;55.58;25.13;;;7.80;83.00;;;;;;5086242;28;20098;-68
2021/11/16 09:28:03;;;;;;;51.67;23.50;;;7.80;83.20;;;;;;5087286;28;20063;-68
2021/11/16 09:30:36;;;;;;;52.80;23.80;;;7.80;83.20;;;;;;5086191;28;20352;-68
2021/11/16 09:33:06;;;;;;;53.85;23.90;;;7.80;83.20;;;;;;5088002;28;20435;-68
2021/11/16 09:35:52;;;;;;;57.47;24.80;;;7.80;83.20;;;;;;5088178;28;20390;-68
2021/11/16 09:38:41;;;;;;;55.90;23.45;;;7.90;83.30;;;;;;5087984;28;20028;-68
2021/11/16 09:41:09;;;;;;;52.22;23.27;;;7.90;83.30;;;;;;5081821;28;20031;-68
2021/11/16 09:43:35;;;;;;;54.03;23.23;;;7.90;83.20;;;;;;5084904;28;20030;-68
2021/11/16 09:46:10;;;;;;;53.22;23.67;;;7.90;83.20;;;;;;5065604;28;20024;-69
2021/11/16 09:48:38;;;;;;;49.72;22.25;;;7.90;83.20;;;;;;5082921;28;20054;-69
2021/11/16 09:51:18;;;;;;;48.63;22.00;;;7.90;83.10;;;;;;5086809;28;20020;-69
2021/11/16 09:53:44;;;;;;;48.10;21.10;;;7.90;83.10;;;;;;5086159;28;20032;-69
2021/11/16 09:56:29;;;;;;;47.20;21.40;;;7.90;83.00;;;;;;5068911;28;20043;-68
2021/11/16 09:58:57;;;;;;;48.42;21.75;;;7.90;83.10;;;;;;5077945;28;20042;-68
2021/11/16 10:01:26;;;;;;;55.33;21.98;;;7.90;83.00;;;;;;5068573;28;20394;-68
2021/11/16 10:04:21;;;;;;;43.33;19.13;;;7.90;83.00;;;;;;5090946;28;20024;-68
2021/11/16 10:06:48;;;;;;;41.33;17.67;;;7.90;82.80;;;;;;5086273;28;20126;-68
2021/11/16 10:09:14;;;;;;;39.47;19.27;;;7.90;82.70;;;;;;5091033;28;20028;-69
2021/11/16 10:11:42;;;;;;;42.80;19.95;;;7.90;82.50;;;;;;5090617;28;20114;-70
2021/11/16 10:14:16;;;;;;;41.78;19.83;;;7.90;82.60;;;;;;5075179;28;20053;-69
2021/11/16 10:16:43;;;;;;;42.55;19.60;;;7.90;82.60;;;;;;5067331;28;20048;-70
2021/11/16 10:19:10;;;;;;;45.05;19.17;;;7.90;82.60;;;;;;5043356;28;20064;-69
2021/11/16 10:21:36;;;;;;;57.65;24.23;;;7.90;82.50;;;;;;5091127;28;20036;-69
2021/11/16 10:24:18;;;;;;;44.72;20.45;;;7.90;82.40;;;;;;5075677;28;20028;-69
2021/11/16 10:26:44;;;;;;;43.63;19.35;;;7.90;82.40;;;;;;5075431;28;20023;-69
2021/11/16 10:29:17;;;;;;;41.28;19.17;;;7.90;82.50;;;;;;5091645;28;20020;-69
2021/11/16 10:31:43;;;;;;;36.65;18.48;;;7.90;82.50;;;;;;5073207;28;20426;-69
2021/11/16 10:34:09;;;;;;;41.15;19.27;;;7.90;82.50;;;;;;5091038;28;20059;-68
2021/11/16 10:36:35;;;;;;;40.75;17.98;;;7.90;82.60;;;;;;5072283;28;20063;-70
2021/11/16 10:39:02;;;;;;;40.40;18.65;;;7.90;82.60;;;;;;5081606;28;20028;-68
2021/11/16 10:41:30;;;;;;;42.65;18.75;;;8.00;82.60;;;;;;5081299;28;20046;-70
2021/11/16 10:44:00;;;;;;;44.88;20.75;;;8.00;82.40;;;;;;5074500;28;20126;-68
2021/11/16 10:46:29;;;;;;;42.38;18.63;;;8.00;82.50;;;;;;5070375;28;20075;-67
2021/11/16 10:48:58;;;;;;;41.75;18.92;;;8.00;82.40;;;;;;5071010;28;20228;-67
2021/11/16 10:51:31;;;;;;;40.80;19.63;;;8.00;82.30;;;;;;5052829;28;20032;-68
2021/11/16 10:53:58;;;;;;;40.60;17.88;;;8.00;82.40;;;;;;5071126;28;20029;-67
2021/11/16 10:56:35;;;;;;;40.65;19.00;;;8.00;82.50;;;;;;5070806;28;20054;-67
2021/11/16 10:59:11;;;;;;;39.50;18.65;;;8.00;82.50;;;;;;5071073;28;20607;-68
2021/11/16 11:01:46;;;;;;;39.05;19.13;;;8.00;82.40;;;;;;5071051;28;20025;-74
2021/11/16 11:04:20;;;;;;;40.33;17.98;;;8.10;82.30;;;;;;5070795;28;20036;-68
2021/11/16 11:06:49;;;;;;;39.17;17.92;;;8.00;82.30;;;;;;5070903;28;20088;-69
2021/11/16 11:09:17;;;;;;;37.08;17.70;;;8.00;82.40;;;;;;5052448;28;20025;-69
2021/11/16 11:11:47;;;;;;;34.15;16.50;;;8.10;82.30;;;;;;5063153;28;20040;-69
2021/11/16 11:14:16;;;;;;;39.08;18.40;;;8.00;82.10;;;;;;5046415;28;20123;-68
2021/11/16 11:17:00;;;;;;;35.30;17.60;;;8.00;82.10;;;;;;5061816;28;20025;-68
2021/11/16 11:19:33;;;;;;;37.13;18.25;;;8.00;82.20;;;;;;5059352;28;20013;-72
2021/11/16 11:27:35;;;;;;;34.78;17.83;;;8.00;81.80;;;;;;5070232;28;20048;-72
2021/11/16 11:30:05;;;;;;;31.60;16.30;;;8.00;81.50;;;;;;5066979;28;20110;-73
2021/11/16 11:32:36;;;;;;;34.63;16.42;;;8.00;82.30;;;;;;5069644;28;20021;-73
2021/11/16 11:35:15;;;;;;;34.55;17.25;;;8.00;81.60;;;;;;5069448;28;20032;-72
2021/11/16 11:37:42;;;;;;;35.42;17.75;;;8.00;81.60;;;;;;5072392;28;20028;-73
2021/11/16 11:40:17;;;;;;;33.97;17.13;;;8.00;81.70;;;;;;5067295;28;20032;-72
2021/11/16 11:42:59;;;;;;;32.58;16.38;;;8.00;81.70;;;;;;5068998;28;20366;-72
2021/11/16 11:45:51;;;;;;;33.63;17.58;;;8.00;81.60;;;;;;5058131;28;20040;-72
2021/11/16 11:48:22;;;;;;;31.97;16.60;;;8.00;81.50;;;;;;5065872;28;20530;-72
2021/11/16 11:50:59;;;;;;;34.65;17.08;;;8.00;80.90;;;;;;5069425;28;20020;-72
2021/11/16 11:53:31;;;;;;;41.33;18.65;;;8.00;80.90;;;;;;5058976;28;20387;-72
2021/11/16 11:56:05;;;;;;;36.22;17.60;;;8.00;81.10;;;;;;5068986;28;20028;-72
2021/11/16 11:58:38;;;;;;;36.20;18.23;;;8.00;81.30;;;;;;5068016;28;20032;-72
2021/11/16 12:01:07;;;;;;;35.80;17.95;;;7.90;81.40;;;;;;5066933;28;20562;-72
2021/11/16 12:03:38;;;;;;;36.17;17.95;;;8.00;81.50;;;;;;5069721;28;20467;-71
2021/11/16 12:06:04;;;;;;;37.13;18.30;;;7.90;81.50;;;;;;5068152;28;20029;-71
2021/11/16 12:08:30;;;;;;;41.03;19.05;;;7.90;81.60;;;;;;5065430;28;20052;-71
2021/11/16 12:10:56;;;;;;;36.15;17.95;;;8.00;81.80;;;;;;5067647;28;20454;-72
2021/11/16 12:13:23;;;;;;;36.75;18.48;;;8.00;81.70;;;;;;5060424;28;20526;-72
2021/11/16 12:16:00;;;;;;;36.78;17.67;;;8.00;81.70;;;;;;5077905;28;20033;-72
2021/11/16 12:19:02;;;;;;;34.13;16.95;;;8.00;81.60;;;;;;5084468;28;20020;-72
2021/11/16 12:21:36;;;;;;;33.03;16.33;;;8.00;81.70;;;;;;5087399;28;20508;-71
2021/11/16 12:24:15;;;;;;;34.35;16.80;;;8.00;81.60;;;;;;5085731;28;20031;-72
2021/11/16 12:26:53;;;;;;;39.97;18.10;;;7.90;81.40;;;;;;5088944;28;20103;-71
2021/11/16 12:29:21;;;;;;;28.38;14.40;;;7.90;81.40;;;;;;5081953;28;20075;-71
2021/11/16 12:31:50;;;;;;;36.08;16.75;;;7.90;81.30;;;;;;5086970;28;20073;-71
2021/11/16 12:34:38;;;;;;;34.75;16.42;;;7.90;81.30;;;;;;5063308;28;20423;-71
2021/11/16 12:37:05;;;;;;;38.08;17.33;;;7.90;81.30;;;;;;5088666;28;20028;-70
2021/11/16 12:39:31;;;;;;;37.15;16.73;;;7.90;81.40;;;;;;5069235;28;20032;-71
2021/11/16 12:42:12;;;;;;;30.70;15.30;;;7.90;81.30;;;;;;5089046;28;20480;-70
2021/11/16 12:44:44;;;;;;;29.50;15.38;;;7.90;81.30;;;;;;5087613;28;20028;-71
2021/11/16 12:47:11;;;;;;;30.45;15.13;;;8.00;81.20;;;;;;5088151;28;20545;-72
2021/11/16 12:49:40;;;;;;;29.67;15.32;;;8.00;81.10;;;;;;5087546;28;20424;-71
2021/11/16 12:52:11;;;;;;;34.72;16.70;;;8.00;80.90;;;;;;5079310;28;20505;-72
2021/11/16 12:54:38;;;;;;;30.90;15.68;;;8.00;80.90;;;;;;5071433;28;20024;-72
2021/11/16 12:57:17;;;;;;;30.55;15.82;;;8.00;80.90;;;;;;5087625;28;20474;-72
2021/11/16 12:59:45;;;;;;;30.75;16.35;;;8.00;80.70;;;;;;5086043;28;20032;-68
2021/11/16 13:02:20;;;;;;;33.08;16.63;;;8.00;80.50;;;;;;5087864;28;20082;-68
2021/11/16 13:04:50;;;;;;;28.27;15.43;;;7.90;80.50;;;;;;5088700;28;20110;-68
2021/11/16 13:07:33;;;;;;;28.85;15.68;;;8.00;80.60;;;;;;5076682;28;20158;-68
2021/11/16 13:10:01;;;;;;;30.75;15.52;;;7.90;80.70;;;;;;5088624;28;20051;-68